createdAt,value
2022-12-14T00:01:23.246Z,100796.81
2022-12-14T00:03:50.881Z,100786.38
2022-12-14T00:06:23.064Z,100793.94
2022-12-14T00:08:52.452Z,100792.19
2022-12-14T00:11:19.764Z,100781.84
2022-12-14T00:13:48.959Z,100775.81
2022-12-14T00:16:18.048Z,100781.75
2022-12-14T00:18:48.932Z,100785.94
2022-12-14T00:21:15.490Z,100778.03
2022-12-14T00:23:44.081Z,100773.69
2022-12-14T00:26:25.956Z,100764.34
2022-12-14T00:28:54.077Z,100768.53
2022-12-14T00:31:21.836Z,100772.78
2022-12-14T00:33:48.839Z,100768.47
2022-12-14T00:36:15.349Z,100765.81
2022-12-14T00:38:42.625Z,100766.59
2022-12-14T00:41:10.052Z,100763.19
2022-12-14T00:43:36.591Z,100759.81
2022-12-14T00:46:03.255Z,100760.72
2022-12-14T00:48:30.506Z,100752.97
2022-12-14T00:50:57.677Z,100752.16
2022-12-14T00:53:25.406Z,100749.50
2022-12-14T00:55:52.314Z,100743.59
2022-12-14T00:58:21.038Z,100744.47
2022-12-14T01:00:48.555Z,100734.03
2022-12-14T01:03:15.661Z,100736.66
2022-12-14T01:05:42.524Z,100720.44
2022-12-14T01:08:15.709Z,100723.84
2022-12-14T01:10:42.060Z,100727.38
2022-12-14T01:13:10.472Z,100725.78
2022-12-14T01:15:37.125Z,100721.66
2022-12-14T01:18:03.699Z,100722.75
2022-12-14T01:20:30.650Z,100719.50
2022-12-14T01:22:56.961Z,100714.38
2022-12-14T01:25:23.511Z,100719.72
2022-12-14T01:27:49.941Z,100718.06
2022-12-14T01:30:18.174Z,100724.03
2022-12-14T01:32:44.921Z,100712.94
2022-12-14T01:35:11.330Z,100714.56
2022-12-14T01:37:37.757Z,100720.59
2022-12-14T01:40:04.485Z,100718.81
2022-12-14T01:42:30.813Z,100710.31
2022-12-14T01:44:58.350Z,100717.22
2022-12-14T01:47:34.109Z,100723.13
2022-12-14T01:50:14.206Z,100716.19
2022-12-14T01:52:43.952Z,100716.19
2022-12-14T01:55:22.714Z,100711.03
2022-12-14T01:58:12.357Z,100711.06
2022-12-14T02:00:39.154Z,100704.38
2022-12-14T02:03:08.840Z,100705.41
2022-12-14T02:05:41.114Z,100702.88
2022-12-14T02:08:08.685Z,100712.31
2022-12-14T02:10:35.977Z,100703.19
2022-12-14T02:13:23.865Z,100697.50
2022-12-14T02:15:51.447Z,100695.13
2022-12-14T02:18:24.859Z,100691.75
2022-12-14T02:21:12.517Z,100695.31
2022-12-14T02:24:16.156Z,100691.94
2022-12-14T02:27:10.405Z,100686.78
2022-12-14T02:29:49.140Z,100693.63
2022-12-14T02:32:36.486Z,100694.41
2022-12-14T02:35:15.543Z,100686.63
2022-12-14T02:37:41.794Z,100685.78
2022-12-14T02:40:37.591Z,100683.19
2022-12-14T02:43:31.118Z,100676.38
2022-12-14T02:46:21.312Z,100671.22
2022-12-14T02:49:10.565Z,100679.97
2022-12-14T02:51:46.014Z,100673.22
2022-12-14T02:54:43.485Z,100678.34
2022-12-14T02:57:34.137Z,100666.44
2022-12-14T03:00:02.690Z,100661.59
2022-12-14T03:02:30.464Z,100670.47
2022-12-14T03:04:56.996Z,100665.59
2022-12-14T03:07:40.342Z,100657.34
2022-12-14T03:10:11.145Z,100654.38
2022-12-14T03:12:42.682Z,100663.09
2022-12-14T03:15:12.190Z,100654.66
2022-12-14T03:17:39.717Z,100654.84
2022-12-14T03:20:12.649Z,100642.84
2022-12-14T03:22:56.642Z,100636.75
2022-12-14T03:25:44.461Z,100632.50
2022-12-14T03:28:18.258Z,100631.00
2022-12-14T03:31:00.920Z,100626.75
2022-12-14T03:33:31.384Z,100619.09
2022-12-14T03:36:10.602Z,100614.72
2022-12-14T03:38:43.686Z,100609.50
2022-12-14T03:41:27.693Z,100613.94
2022-12-14T03:44:03.781Z,100619.22
2022-12-14T03:46:55.510Z,100614.22
2022-12-14T03:49:38.534Z,100614.31
2022-12-14T03:52:25.328Z,100615.34
2022-12-14T03:55:05.273Z,100612.34
2022-12-14T03:58:07.875Z,100607.53
2022-12-14T04:00:45.718Z,100613.66
2022-12-14T04:03:29.331Z,100618.16
2022-12-14T04:06:03.823Z,100611.53
2022-12-14T04:08:57.652Z,100603.97
2022-12-14T04:11:49.692Z,100605.81
2022-12-14T04:14:52.721Z,100605.97
2022-12-14T04:17:44.578Z,100600.03
2022-12-14T04:20:16.946Z,100592.47
2022-12-14T04:22:56.662Z,100594.22
2022-12-14T04:25:54.115Z,100584.03
2022-12-14T04:28:47.933Z,100585.94
2022-12-14T04:31:20.030Z,100582.56
2022-12-14T04:34:06.593Z,100586.75
2022-12-14T04:36:36.584Z,100578.25
2022-12-14T04:39:08.823Z,100585.03
2022-12-14T04:41:38.105Z,100578.97
2022-12-14T04:44:15.667Z,100580.66
2022-12-14T04:46:44.034Z,100565.25
2022-12-14T04:49:23.631Z,100566.84
2022-12-14T04:52:05.065Z,100569.41
2022-12-14T04:54:41.384Z,100573.75
2022-12-14T04:57:19.334Z,100571.09
2022-12-14T04:59:47.042Z,100568.38
2022-12-14T05:02:28.412Z,100563.19
2022-12-14T05:05:15.057Z,100556.50
2022-12-14T05:07:52.460Z,100556.34
2022-12-14T05:10:24.697Z,100556.22
2022-12-14T05:13:18.682Z,100568.06
2022-12-14T05:15:54.369Z,100550.97
2022-12-14T05:18:21.248Z,100562.94
2022-12-14T05:20:48.465Z,100554.22
2022-12-14T05:23:16.093Z,100558.47
2022-12-14T05:25:43.129Z,100545.69
2022-12-14T05:28:10.884Z,100547.44
2022-12-14T05:30:37.268Z,100557.00
2022-12-14T05:33:03.694Z,100552.91
2022-12-14T05:35:30.103Z,100558.03
2022-12-14T05:37:56.457Z,100544.41
2022-12-14T05:40:22.912Z,100547.81
2022-12-14T05:42:55.225Z,100552.97
2022-12-14T05:45:22.171Z,100552.22
2022-12-14T05:47:48.581Z,100558.19
2022-12-14T05:50:14.943Z,100553.06
2022-12-14T05:52:41.344Z,100550.50
2022-12-14T05:55:08.373Z,100548.84
2022-12-14T05:57:34.762Z,100549.69
2022-12-14T06:00:01.110Z,100541.16
2022-12-14T06:02:27.634Z,100545.47
2022-12-14T06:04:54.095Z,100539.63
2022-12-14T06:07:24.507Z,100529.81
2022-12-14T06:09:54.020Z,100518.09
2022-12-14T06:12:20.445Z,100525.09
2022-12-14T06:14:46.770Z,100533.88
2022-12-14T06:17:13.204Z,100530.63
2022-12-14T06:19:39.528Z,100525.56
2022-12-14T06:22:05.922Z,100527.41
2022-12-14T06:24:32.348Z,100525.84
2022-12-14T06:26:58.752Z,100527.66
2022-12-14T06:29:26.017Z,100530.38
2022-12-14T06:31:52.418Z,100533.06
2022-12-14T06:34:21.268Z,100533.19
2022-12-14T06:36:50.010Z,100526.22
2022-12-14T06:39:17.160Z,100527.75
2022-12-14T06:41:43.913Z,100529.34
2022-12-14T06:44:13.021Z,100536.19
2022-12-14T06:46:39.867Z,100531.19
2022-12-14T06:49:06.914Z,100533.06
2022-12-14T06:51:38.939Z,100534.06
2022-12-14T06:54:05.381Z,100534.16
2022-12-14T06:56:32.145Z,100535.03
2022-12-14T06:58:58.538Z,100536.91
2022-12-14T07:01:25.990Z,100537.03
2022-12-14T07:03:57.153Z,100544.75
2022-12-14T07:06:24.952Z,100538.66
2022-12-14T07:08:56.336Z,100552.50
2022-12-14T07:11:23.018Z,100539.03
2022-12-14T07:13:49.454Z,100553.69
2022-12-14T07:16:20.055Z,100554.41
2022-12-14T07:18:47.074Z,100551.00
2022-12-14T07:21:16.228Z,100556.34
2022-12-14T07:23:44.609Z,100557.28
2022-12-14T07:26:15.415Z,100554.72
2022-12-14T07:28:42.693Z,100558.22
2022-12-14T07:31:18.143Z,100560.84
2022-12-14T07:33:44.847Z,100554.91
2022-12-14T07:36:19.565Z,100554.03
2022-12-14T07:38:48.791Z,100548.94
2022-12-14T07:41:22.852Z,100549.91
2022-12-14T07:43:50.643Z,100553.34
2022-12-14T07:46:19.984Z,100561.84
2022-12-14T07:48:48.027Z,100555.03
2022-12-14T07:51:17.504Z,100554.97
2022-12-14T07:53:44.438Z,100551.59
2022-12-14T07:56:16.298Z,100556.75
2022-12-14T07:58:42.971Z,100562.84
2022-12-14T08:01:21.196Z,100570.63
2022-12-14T08:03:51.006Z,100562.16
2022-12-14T08:06:19.349Z,100562.22
2022-12-14T08:08:45.711Z,100564.91
2022-12-14T08:11:13.064Z,100564.13
2022-12-14T08:13:39.776Z,100565.88
2022-12-14T08:16:08.381Z,100564.19
2022-12-14T08:18:35.253Z,100564.19
2022-12-14T08:21:02.058Z,100561.69
2022-12-14T08:23:29.241Z,100566.88
2022-12-14T08:25:57.808Z,100571.13
2022-12-14T08:28:25.746Z,100574.47
2022-12-14T08:30:52.833Z,100573.53
2022-12-14T08:33:20.609Z,100576.78
2022-12-14T08:35:47.037Z,100569.78
2022-12-14T08:38:13.551Z,100576.41
2022-12-14T08:40:40.092Z,100582.16
2022-12-14T08:43:07.433Z,100588.66
2022-12-14T08:45:33.941Z,100579.88
2022-12-14T08:48:00.684Z,100586.38
2022-12-14T08:50:29.065Z,100593.78
2022-12-14T08:52:55.983Z,100579.06
2022-12-14T08:55:28.298Z,100576.94
2022-12-14T08:57:56.797Z,100572.94
2022-12-14T09:00:23.250Z,100566.44
2022-12-14T09:02:51.001Z,100570.25
2022-12-14T09:05:17.567Z,100568.16
2022-12-14T09:07:43.929Z,100568.59
2022-12-14T09:10:10.943Z,100574.53
2022-12-14T09:12:37.349Z,100561.50
2022-12-14T09:15:04.105Z,100570.56
2022-12-14T09:17:30.491Z,100563.13
2022-12-14T09:19:58.009Z,100566.34
2022-12-14T09:22:24.531Z,100564.06
2022-12-14T09:24:52.183Z,100557.91
2022-12-14T09:27:18.834Z,100547.38
2022-12-14T09:29:45.276Z,100553.22
2022-12-14T09:32:11.779Z,100559.69
2022-12-14T09:34:38.151Z,100557.75
2022-12-14T09:37:07.342Z,100549.94
2022-12-14T09:39:34.704Z,100545.97
2022-12-14T09:42:35.635Z,100552.94
2022-12-14T09:45:21.780Z,100548.75
2022-12-14T09:47:59.858Z,100548.78
2022-12-14T09:50:27.222Z,100551.81
2022-12-14T09:52:55.734Z,100549.13
2022-12-14T09:55:26.779Z,100544.97
2022-12-14T09:58:05.474Z,100544.97
2022-12-14T10:00:35.849Z,100546.34
2022-12-14T10:03:34.828Z,100553.09
2022-12-14T10:06:21.259Z,100552.16
2022-12-14T10:08:57.044Z,100546.09
2022-12-14T10:11:43.207Z,100544.00
2022-12-14T10:14:23.327Z,100549.41
2022-12-14T10:17:32.052Z,100543.44
2022-12-14T10:20:30.489Z,100527.13
2022-12-14T10:22:57.960Z,100526.94
2022-12-14T10:25:25.927Z,100521.28
2022-12-14T10:28:13.111Z,100536.31
2022-12-14T10:30:44.481Z,100542.63
2022-12-14T10:33:23.250Z,100535.66
2022-12-14T10:35:55.411Z,100525.66
2022-12-14T10:38:41.875Z,100502.06
2022-12-14T10:41:43.719Z,100507.41
2022-12-14T10:44:23.222Z,100502.91
2022-12-14T10:47:19.172Z,100508.00
2022-12-14T10:50:03.483Z,100489.84
2022-12-14T10:52:37.653Z,100494.38
2022-12-14T10:55:13.599Z,100503.94
2022-12-14T10:57:39.962Z,100490.72
2022-12-14T11:00:22.591Z,100486.72
2022-12-14T11:02:54.778Z,100486.16
2022-12-14T11:05:28.742Z,100486.00
2022-12-14T11:07:59.424Z,100481.19
2022-12-14T11:10:27.474Z,100476.63
2022-12-14T11:12:59.451Z,100485.97
2022-12-14T11:15:34.384Z,100488.09
2022-12-14T11:18:19.840Z,100475.44
2022-12-14T11:20:58.481Z,100487.31
2022-12-14T11:23:27.798Z,100494.75
2022-12-14T11:25:57.565Z,100500.78
2022-12-14T11:28:36.119Z,100500.03
2022-12-14T11:31:05.456Z,100499.53
2022-12-14T11:33:34.368Z,100504.94
2022-12-14T11:36:01.067Z,100501.00
2022-12-14T11:38:29.475Z,100505.06
2022-12-14T11:40:56.913Z,100511.47
2022-12-14T11:43:30.378Z,100512.50
2022-12-14T11:45:57.576Z,100500.00
2022-12-14T11:48:27.929Z,100501.00
2022-12-14T11:51:14.905Z,100485.19
2022-12-14T11:53:41.638Z,100482.28
2022-12-14T11:56:15.329Z,100477.78
2022-12-14T11:58:52.822Z,100479.66
2022-12-14T12:01:25.462Z,100465.09
2022-12-14T12:03:55.186Z,100468.44
2022-12-14T12:06:25.358Z,100472.78
2022-12-14T12:08:57.787Z,100470.31
2022-12-14T12:11:28.875Z,100474.25
2022-12-14T12:14:15.005Z,100472.34
2022-12-14T12:16:54.690Z,100476.94
2022-12-14T12:19:30.925Z,100466.88
2022-12-14T12:22:01.075Z,100477.72
2022-12-14T12:25:01.143Z,100475.53
2022-12-14T12:27:27.511Z,100468.53
2022-12-14T12:30:34.759Z,100473.13
2022-12-14T12:33:25.822Z,100474.41
2022-12-14T12:35:59.789Z,100473.34
2022-12-14T12:38:57.275Z,100473.72
2022-12-14T12:41:28.317Z,100479.84
2022-12-14T12:44:00.906Z,100479.25
2022-12-14T12:46:43.972Z,100479.88
2022-12-14T12:49:22.363Z,100487.44
2022-12-14T12:51:54.250Z,100490.78
2022-12-14T12:54:28.712Z,100494.09
2022-12-14T12:56:57.582Z,100498.38
2022-12-14T12:59:36.329Z,100489.47
2022-12-14T13:02:22.001Z,100491.16
2022-12-14T13:04:52.807Z,100490.03
2022-12-14T13:07:28.283Z,100492.31
2022-12-14T13:10:15.744Z,100492.94
2022-12-14T13:12:48.674Z,100493.47
2022-12-14T13:15:27.805Z,100501.47
2022-12-14T13:18:01.146Z,100501.25
2022-12-14T13:20:34.151Z,100515.97
2022-12-14T13:23:21.648Z,100524.97
2022-12-14T13:26:55.558Z,100522.75
2022-12-14T13:30:05.400Z,100528.78
2022-12-14T13:33:09.244Z,100530.75
2022-12-14T13:35:57.159Z,100530.34
2022-12-14T13:38:45.726Z,100533.50
2022-12-14T13:41:20.961Z,100527.19
2022-12-14T13:44:13.270Z,100535.00
2022-12-14T13:46:40.062Z,100543.41
2022-12-14T13:49:17.181Z,100536.69
2022-12-14T13:51:49.980Z,100530.44
2022-12-14T13:54:30.318Z,100527.53
2022-12-14T13:57:07.827Z,100533.19
2022-12-14T13:59:39.577Z,100530.13
2022-12-14T14:02:26.624Z,100526.94
2022-12-14T14:05:22.340Z,100523.72
2022-12-14T14:08:01.390Z,100522.47
2022-12-14T14:10:41.612Z,100527.09
2022-12-14T14:13:29.467Z,100528.22
2022-12-14T14:16:27.944Z,100530.06
2022-12-14T14:18:59.679Z,100527.63
2022-12-14T14:21:58.926Z,100532.31
2022-12-14T14:24:28.045Z,100542.06
2022-12-14T14:27:21.738Z,100537.66
2022-12-14T14:29:50.197Z,100541.50
2022-12-14T14:32:40.808Z,100540.59
2022-12-14T14:35:20.463Z,100549.56
2022-12-14T14:37:57.191Z,100552.63
2022-12-14T14:40:51.344Z,100559.41
2022-12-14T14:43:16.829Z,100552.69
2022-12-14T14:45:51.305Z,100552.31
2022-12-14T14:48:35.084Z,100562.44
2022-12-14T14:51:10.392Z,100558.69
2022-12-14T14:53:39.191Z,100556.50
2022-12-14T14:56:29.689Z,100557.78
2022-12-14T14:59:14.607Z,100559.72
2022-12-14T15:02:00.521Z,100564.78
2022-12-14T15:04:46.102Z,100567.00
2022-12-14T15:07:18.586Z,100568.25
2022-12-14T15:09:57.960Z,100573.41
2022-12-14T15:12:41.731Z,100580.34
2022-12-14T15:15:17.390Z,100573.16
2022-12-14T15:17:43.834Z,100584.19
2022-12-14T15:20:26.779Z,100579.56
2022-12-14T15:22:55.854Z,100593.81
2022-12-14T15:25:28.178Z,100602.00
2022-12-14T15:27:57.862Z,100604.72
2022-12-14T15:30:28.940Z,100596.78
2022-12-14T15:33:01.260Z,100604.19
2022-12-14T15:35:34.369Z,100597.78
2022-12-14T15:38:04.169Z,100599.66
2022-12-14T15:40:31.965Z,100601.56
2022-12-14T15:43:01.577Z,100600.25
2022-12-14T15:45:30.630Z,100598.50
2022-12-14T15:48:31.505Z,100602.09
2022-12-14T15:51:03.141Z,100596.69
2022-12-14T15:53:39.744Z,100603.94
2022-12-14T15:56:29.082Z,100610.28
2022-12-14T15:59:02.013Z,100607.50
2022-12-14T16:01:37.478Z,100610.28
2022-12-14T16:04:07.626Z,100611.38
2022-12-14T16:06:40.287Z,100618.78
2022-12-14T16:09:24.042Z,100625.88
2022-12-14T16:11:56.880Z,100619.91
2022-12-14T16:14:33.564Z,100625.16
2022-12-14T16:17:00.840Z,100623.56
2022-12-14T16:19:45.000Z,100622.91
2022-12-14T16:22:22.522Z,100622.34
2022-12-14T16:25:00.875Z,100627.88
2022-12-14T16:27:28.286Z,100629.91
2022-12-14T16:30:17.630Z,100631.88
2022-12-14T16:32:50.197Z,100630.31
2022-12-14T16:35:23.610Z,100641.63
2022-12-14T16:37:54.782Z,100632.22
2022-12-14T16:40:34.723Z,100636.59
2022-12-14T16:43:02.424Z,100631.66
2022-12-14T16:46:05.839Z,100637.72
2022-12-14T16:48:35.822Z,100637.81
2022-12-14T16:51:37.923Z,100644.81
2022-12-14T16:54:22.440Z,100641.69
2022-12-14T16:56:53.222Z,100642.00
2022-12-14T16:59:28.044Z,100661.88
2022-12-14T17:01:54.964Z,100649.97
2022-12-14T17:04:22.543Z,100649.25
2022-12-14T17:06:54.505Z,100652.66
2022-12-14T17:09:27.459Z,100646.69
2022-12-14T17:11:57.593Z,100646.78
2022-12-14T17:14:24.522Z,100649.56
2022-12-14T17:17:00.827Z,100655.88
2022-12-14T17:19:33.362Z,100646.63
2022-12-14T17:22:01.044Z,100658.50
2022-12-14T17:24:37.324Z,100645.63
2022-12-14T17:27:04.160Z,100648.31
2022-12-14T17:29:31.775Z,100644.09
2022-12-14T17:32:01.165Z,100643.41
2022-12-14T17:34:29.565Z,100638.44
2022-12-14T17:36:56.349Z,100654.59
2022-12-14T17:39:24.693Z,100641.69
2022-12-14T17:41:51.182Z,100653.75
2022-12-14T17:44:20.507Z,100653.00
2022-12-14T17:46:48.772Z,100657.84
2022-12-14T17:49:16.632Z,100660.59
2022-12-14T17:51:46.340Z,100656.44
2022-12-14T17:54:16.459Z,100654.91
2022-12-14T17:56:44.149Z,100655.03
2022-12-14T17:59:10.561Z,100659.50
2022-12-14T18:01:37.129Z,100658.75
2022-12-14T18:04:04.218Z,100660.44
2022-12-14T18:06:30.638Z,100662.19
2022-12-14T18:08:57.059Z,100661.34
2022-12-14T18:11:24.685Z,100664.81
2022-12-14T18:13:51.356Z,100670.03
2022-12-14T18:16:19.855Z,100670.94
2022-12-14T18:18:46.223Z,100663.25
2022-12-14T18:21:22.435Z,100664.13
2022-12-14T18:23:50.012Z,100674.41
2022-12-14T18:26:20.681Z,100670.09
2022-12-14T18:28:48.511Z,100680.44
2022-12-14T18:31:37.159Z,100673.84
2022-12-14T18:34:05.213Z,100674.00
2022-12-14T18:36:31.653Z,100670.66
2022-12-14T18:38:58.261Z,100673.38
2022-12-14T18:41:26.364Z,100683.56
2022-12-14T18:43:54.236Z,100672.47
2022-12-14T18:46:20.729Z,100670.81
2022-12-14T18:48:47.119Z,100666.53
2022-12-14T18:51:23.357Z,100674.25
2022-12-14T18:53:50.728Z,100679.53
2022-12-14T18:56:17.515Z,100675.34
2022-12-14T18:58:45.306Z,100675.41
2022-12-14T19:01:23.716Z,100686.59
2022-12-14T19:03:50.789Z,100686.59
2022-12-14T19:09:08.967Z,100680.72
2022-12-14T19:11:41.572Z,100683.31
2022-12-14T19:14:08.290Z,100685.16
2022-12-14T19:16:34.893Z,100686.97
2022-12-14T19:19:01.434Z,100684.50
2022-12-14T19:21:29.348Z,100687.84
2022-12-14T19:23:55.982Z,100695.38
2022-12-14T19:26:22.403Z,100690.25
2022-12-14T19:28:48.912Z,100697.94
2022-12-14T19:31:15.358Z,100698.81
2022-12-14T19:33:41.939Z,100698.00
2022-12-14T19:36:09.255Z,100704.81
2022-12-14T19:38:36.329Z,100698.13
2022-12-14T19:41:08.851Z,100703.41
2022-12-14T19:43:35.802Z,100702.63
2022-12-14T19:46:11.003Z,100706.06
2022-12-14T19:48:42.129Z,100704.44
2022-12-14T19:51:10.912Z,100707.84
2022-12-14T19:53:38.605Z,100716.31
2022-12-14T19:56:05.556Z,100709.44
2022-12-14T19:58:32.269Z,100722.31
2022-12-14T20:00:58.746Z,100716.38
2022-12-14T20:03:25.372Z,100721.53
2022-12-14T20:05:58.509Z,100720.69
2022-12-14T20:08:25.623Z,100719.88
2022-12-14T20:10:55.374Z,100732.44
2022-12-14T20:13:23.581Z,100734.09
2022-12-14T20:15:58.301Z,100745.13
2022-12-14T20:18:26.228Z,100740.03
2022-12-14T20:20:52.888Z,100745.09
2022-12-14T20:23:23.084Z,100751.81
2022-12-14T20:25:49.886Z,100750.91
2022-12-14T20:28:16.322Z,100760.19
2022-12-14T20:30:44.486Z,100751.53
2022-12-14T20:33:10.873Z,100745.41
2022-12-14T20:35:37.377Z,100750.31
2022-12-14T20:38:03.765Z,100756.19
2022-12-14T20:40:37.761Z,100747.63
2022-12-14T20:43:05.088Z,100745.16
2022-12-14T20:45:31.538Z,100750.31
2022-12-14T20:47:57.881Z,100753.72
2022-12-14T20:50:24.358Z,100752.88
2022-12-14T20:52:50.690Z,100755.50
2022-12-14T20:55:17.218Z,100753.88
2022-12-14T20:57:43.596Z,100767.41
2022-12-14T21:00:10.517Z,100762.16
2022-12-14T21:02:36.925Z,100759.56
2022-12-14T21:05:03.888Z,100766.44
2022-12-14T21:07:31.646Z,100761.31
2022-12-14T21:09:58.250Z,100764.69
2022-12-14T21:12:25.670Z,100778.28
2022-12-14T21:14:54.304Z,100780.75
2022-12-14T21:17:23.117Z,100782.38
2022-12-14T21:19:49.934Z,100777.91
2022-12-14T21:22:21.210Z,100767.34
2022-12-14T21:25:05.221Z,100764.56
2022-12-14T21:27:33.740Z,100766.22
2022-12-14T21:30:00.404Z,100773.03
2022-12-14T21:32:27.150Z,100769.50
2022-12-14T21:34:53.524Z,100765.03
2022-12-14T21:37:20.479Z,100760.84
2022-12-14T21:39:53.890Z,100767.72
2022-12-14T21:42:28.307Z,100776.25
2022-12-14T21:44:55.206Z,100769.47
2022-12-14T21:47:25.678Z,100776.25
2022-12-14T21:49:52.146Z,100774.59
2022-12-14T21:52:22.579Z,100777.16
2022-12-14T21:54:49.050Z,100775.44
2022-12-14T21:57:36.027Z,100780.59
2022-12-14T22:00:03.815Z,100785.72
2022-12-14T22:02:30.422Z,100778.03
2022-12-14T22:04:57.113Z,100786.56
2022-12-14T22:07:29.724Z,100791.75
2022-12-14T22:09:56.127Z,100784.13
2022-12-14T22:12:22.470Z,100790.25
2022-12-14T22:14:49.900Z,100793.13
2022-12-14T22:17:16.754Z,100789.91
2022-12-14T22:19:43.106Z,100794.34
2022-12-14T22:22:15.018Z,100797.88
2022-12-14T22:24:41.690Z,100794.56
2022-12-14T22:27:09.922Z,100798.06
2022-12-14T22:29:36.325Z,100794.66
2022-12-14T22:32:02.864Z,100793.81
2022-12-14T22:34:29.303Z,100799.78
2022-12-14T22:36:55.621Z,100809.31
2022-12-14T22:39:21.938Z,100811.94
2022-12-14T22:41:48.766Z,100814.44
2022-12-14T22:44:15.122Z,100811.91
2022-12-14T22:46:41.522Z,100813.59
2022-12-14T22:49:08.722Z,100821.25
2022-12-14T22:51:35.625Z,100828.97
2022-12-14T22:54:02.597Z,100832.50
2022-12-14T22:56:38.882Z,100829.06
2022-12-14T22:59:19.378Z,100820.56
2022-12-14T23:01:49.862Z,100812.16
2022-12-14T23:04:17.250Z,100812.31
2022-12-14T23:06:43.866Z,100809.88
2022-12-14T23:09:28.920Z,100815.84
2022-12-14T23:12:16.127Z,100827.75
2022-12-14T23:15:04.746Z,100831.16
2022-12-14T23:17:49.429Z,100836.28
2022-12-14T23:20:34.254Z,100826.94
2022-12-14T23:23:19.300Z,100821.94
2022-12-14T23:26:04.176Z,100828.88
2022-12-14T23:28:50.342Z,100836.56
2022-12-14T23:31:35.121Z,100829.63
2022-12-14T23:34:19.866Z,100826.19
2022-12-14T23:37:04.541Z,100838.94
2022-12-14T23:39:49.466Z,100830.47
2022-12-14T23:42:34.216Z,100838.16
2022-12-14T23:45:18.915Z,100833.03
2022-12-14T23:48:03.655Z,100849.91
2022-12-14T23:50:48.567Z,100852.94
2022-12-14T23:53:33.670Z,100858.03
2022-12-14T23:56:19.046Z,100854.63
2022-12-14T23:59:03.860Z,100851.19
